createdAt,value
2023-08-12T00:00:38.976Z,38.31
2023-08-12T00:03:05.562Z,37.67
2023-08-12T00:05:32.021Z,38.40
2023-08-12T00:07:58.703Z,38.10
2023-08-12T00:10:25.355Z,38.67
2023-08-12T00:12:52.302Z,38.66
2023-08-12T00:15:19.156Z,38.42
2023-08-12T00:17:46.765Z,38.60
2023-08-12T00:20:13.267Z,38.43
2023-08-12T00:22:39.763Z,38.76
2023-08-12T00:25:06.512Z,38.75
2023-08-12T00:27:32.943Z,38.61
2023-08-12T00:29:59.485Z,38.99
2023-08-12T00:32:26.134Z,39.12
2023-08-12T00:34:52.526Z,38.84
2023-08-12T00:37:19.059Z,38.93
2023-08-12T00:39:47.981Z,38.52
2023-08-12T00:42:15.818Z,39.01
2023-08-12T00:44:42.304Z,38.74
2023-08-12T00:47:09.586Z,38.84
2023-08-12T00:49:37.396Z,39.11
2023-08-12T00:52:03.810Z,39.14
2023-08-12T00:54:30.273Z,39.01
2023-08-12T00:56:59.173Z,38.79
2023-08-12T00:59:25.628Z,39.36
2023-08-12T01:01:52.100Z,39.17
2023-08-12T01:04:18.596Z,39.27
2023-08-12T01:06:45.607Z,38.93
2023-08-12T01:09:12.069Z,39.45
2023-08-12T01:11:38.569Z,39.17
2023-08-12T01:14:05.031Z,39.47
2023-08-12T01:16:31.449Z,39.46
2023-08-12T01:18:57.972Z,39.22
2023-08-12T01:21:24.440Z,39.55
2023-08-12T01:23:50.892Z,39.50
2023-08-12T01:26:17.391Z,39.91
2023-08-12T01:28:43.957Z,39.58
2023-08-12T01:31:10.759Z,39.72
2023-08-12T01:33:37.237Z,39.62
2023-08-12T01:36:04.433Z,39.77
2023-08-12T01:38:30.850Z,40.25
2023-08-12T01:40:58.240Z,40.12
2023-08-12T01:43:24.732Z,39.99
2023-08-12T01:45:51.612Z,40.43
2023-08-12T01:48:18.072Z,40.25
2023-08-12T01:50:44.615Z,40.07
2023-08-12T01:53:11.229Z,40.46
2023-08-12T01:55:37.856Z,40.38
2023-08-12T01:58:04.305Z,40.33
2023-08-12T02:00:30.734Z,40.13
2023-08-12T02:02:57.629Z,40.37
2023-08-12T02:05:24.145Z,40.38
2023-08-12T02:07:50.922Z,40.52
2023-08-12T02:10:17.418Z,40.65
2023-08-12T02:12:44.019Z,40.50
2023-08-12T02:15:10.458Z,40.75
2023-08-12T02:17:37.010Z,40.63
2023-08-12T02:20:05.273Z,40.60
2023-08-12T02:22:33.920Z,40.70
2023-08-12T02:25:00.614Z,40.47
2023-08-12T02:27:27.053Z,40.47
2023-08-12T02:29:53.718Z,40.63
2023-08-12T02:32:20.515Z,41.03
2023-08-12T02:34:47.154Z,40.94
2023-08-12T02:37:13.837Z,41.04
2023-08-12T02:39:40.459Z,41.21
2023-08-12T02:42:06.908Z,41.27
2023-08-12T02:44:34.441Z,41.03
2023-08-12T02:47:01.366Z,41.24
2023-08-12T02:49:28.382Z,41.22
2023-08-12T02:51:55.863Z,41.46
2023-08-12T02:54:22.381Z,41.23
2023-08-12T02:56:49.042Z,41.46
2023-08-12T02:59:15.686Z,41.29
2023-08-12T03:01:42.140Z,41.32
2023-08-12T03:04:08.606Z,41.57
2023-08-12T03:06:35.021Z,41.69
2023-08-12T03:09:01.855Z,41.62
2023-08-12T03:11:28.360Z,41.63
2023-08-12T03:13:55.821Z,41.98
2023-08-12T03:16:24.329Z,41.87
2023-08-12T03:18:51.170Z,42.24
2023-08-12T03:21:17.551Z,41.89
2023-08-12T03:23:44.186Z,41.93
2023-08-12T03:26:10.690Z,42.16
2023-08-12T03:28:38.300Z,41.93
2023-08-12T03:31:04.997Z,41.96
2023-08-12T03:33:32.232Z,42.09
2023-08-12T03:35:58.812Z,41.86
2023-08-12T03:38:25.288Z,42.09
2023-08-12T03:40:51.697Z,41.96
2023-08-12T03:43:18.171Z,41.87
2023-08-12T03:45:45.372Z,41.86
2023-08-12T03:48:11.839Z,41.85
2023-08-12T03:50:38.292Z,42.25
2023-08-12T03:53:04.784Z,42.19
2023-08-12T03:55:31.817Z,42.51
2023-08-12T03:57:58.248Z,42.27
2023-08-12T04:00:24.714Z,42.14
2023-08-12T04:02:51.268Z,42.32
2023-08-12T04:05:17.987Z,42.06
2023-08-12T04:07:44.538Z,42.13
2023-08-12T04:10:12.412Z,42.51
2023-08-12T04:12:38.845Z,42.03
2023-08-12T04:15:05.336Z,42.43
2023-08-12T04:17:31.885Z,42.78
2023-08-12T04:19:58.379Z,42.54
2023-08-12T04:22:24.819Z,42.00
2023-08-12T04:24:51.218Z,41.55
2023-08-12T04:27:17.845Z,40.76
2023-08-12T04:29:44.234Z,40.67
2023-08-12T04:32:10.780Z,41.36
2023-08-12T04:34:37.261Z,42.06
2023-08-12T04:37:03.717Z,41.82
2023-08-12T04:39:30.246Z,42.35
2023-08-12T04:41:56.674Z,42.26
2023-08-12T04:44:23.292Z,42.68
2023-08-12T04:46:50.103Z,42.91
2023-08-12T04:49:16.532Z,42.85
2023-08-12T04:51:42.991Z,42.77
2023-08-12T04:54:09.410Z,42.84
2023-08-12T04:56:36.513Z,43.00
2023-08-12T04:59:03.002Z,42.80
2023-08-12T05:01:32.218Z,42.97
2023-08-12T05:03:58.717Z,42.99
2023-08-12T05:06:25.360Z,42.88
2023-08-12T05:08:52.023Z,42.79
2023-08-12T05:11:18.710Z,42.98
2023-08-12T05:13:47.784Z,42.67
2023-08-12T05:16:15.672Z,42.93
2023-08-12T05:18:42.444Z,42.81
2023-08-12T05:21:08.866Z,42.83
2023-08-12T05:23:36.255Z,42.57
2023-08-12T05:26:02.740Z,42.51
2023-08-12T05:28:29.273Z,42.84
2023-08-12T05:30:55.686Z,42.36
2023-08-12T05:33:22.202Z,42.67
2023-08-12T05:35:48.837Z,42.85
2023-08-12T05:38:15.551Z,42.99
2023-08-12T05:40:41.971Z,42.70
2023-08-12T05:43:08.765Z,42.58
2023-08-12T05:45:35.267Z,42.04
2023-08-12T05:48:02.162Z,42.32
2023-08-12T05:50:28.817Z,42.06
2023-08-12T05:52:55.517Z,42.01
2023-08-12T05:55:25.059Z,42.28
2023-08-12T05:57:51.563Z,42.11
2023-08-12T06:00:18.059Z,42.18
2023-08-12T06:02:53.126Z,41.87
2023-08-12T06:05:20.000Z,42.02
2023-08-12T06:07:46.806Z,41.88
2023-08-12T06:10:13.917Z,42.04
2023-08-12T06:12:42.567Z,41.48
2023-08-12T06:15:12.022Z,41.84
2023-08-12T06:17:38.683Z,41.72
2023-08-12T06:20:05.561Z,41.49
2023-08-12T06:22:40.328Z,41.79
2023-08-12T06:25:07.013Z,41.63
2023-08-12T06:27:33.404Z,41.92
2023-08-12T06:30:00.145Z,41.82
2023-08-12T06:32:26.593Z,41.84
2023-08-12T06:34:53.056Z,41.79
2023-08-12T06:37:19.592Z,40.88
2023-08-12T06:39:46.003Z,41.26
2023-08-12T06:42:12.502Z,41.16
2023-08-12T06:44:39.103Z,40.61
2023-08-12T06:47:05.757Z,40.67
2023-08-12T06:49:32.284Z,41.38
2023-08-12T06:51:59.158Z,41.28
2023-08-12T06:54:25.541Z,40.73
2023-08-12T06:56:52.122Z,40.58
2023-08-12T06:59:18.506Z,40.80
2023-08-12T07:01:45.245Z,40.88
2023-08-12T07:04:11.797Z,40.92
2023-08-12T07:06:38.179Z,41.24
2023-08-12T07:09:04.803Z,40.93
2023-08-12T07:11:31.282Z,40.73
2023-08-12T07:13:57.851Z,40.40
2023-08-12T07:16:24.718Z,40.79
2023-08-12T07:18:51.114Z,40.75
2023-08-12T07:21:17.662Z,41.22
2023-08-12T07:23:51.420Z,40.17
2023-08-12T07:26:28.398Z,41.25
2023-08-12T07:28:54.834Z,40.86
2023-08-12T07:31:21.362Z,40.55
2023-08-12T07:33:47.950Z,40.47
2023-08-12T07:36:14.583Z,40.77
2023-08-12T07:38:41.195Z,40.85
2023-08-12T07:41:07.574Z,40.72
2023-08-12T07:43:34.237Z,40.39
2023-08-12T07:46:09.395Z,40.65
2023-08-12T07:48:36.869Z,40.53
2023-08-12T07:51:03.488Z,41.25
2023-08-12T07:53:29.905Z,40.69
2023-08-12T07:55:56.314Z,40.48
2023-08-12T07:58:22.809Z,40.34
2023-08-12T08:00:50.280Z,39.81
2023-08-12T08:03:16.932Z,40.03
2023-08-12T08:05:43.398Z,40.86
2023-08-12T08:08:09.952Z,40.54
2023-08-12T08:10:37.401Z,40.20
2023-08-12T08:13:05.938Z,40.69
2023-08-12T08:15:32.347Z,40.54
2023-08-12T08:17:59.544Z,40.40
2023-08-12T08:20:28.632Z,40.21
2023-08-12T08:22:55.084Z,40.00
2023-08-12T08:25:24.039Z,40.02
2023-08-12T08:27:50.973Z,40.24
2023-08-12T08:30:17.687Z,40.22
2023-08-12T08:32:44.140Z,39.84
2023-08-12T08:35:10.705Z,40.31
2023-08-12T08:37:38.235Z,40.16
2023-08-12T08:40:04.694Z,40.20
2023-08-12T08:42:32.171Z,39.39
2023-08-12T08:44:58.756Z,40.27
2023-08-12T08:47:25.355Z,39.62
2023-08-12T08:49:51.778Z,40.40
2023-08-12T08:52:18.292Z,39.77
2023-08-12T08:54:46.583Z,39.72
2023-08-12T08:57:16.752Z,39.58
2023-08-12T08:59:58.185Z,39.10
2023-08-12T09:02:25.246Z,39.28
2023-08-12T09:04:51.784Z,39.35
2023-08-12T09:07:19.250Z,39.40
2023-08-12T09:09:45.659Z,39.16
2023-08-12T09:12:12.665Z,39.88
2023-08-12T09:14:39.342Z,39.80
2023-08-12T09:17:06.041Z,39.73
2023-08-12T09:19:32.747Z,39.82
2023-08-12T09:22:01.342Z,39.92
2023-08-12T09:24:28.011Z,40.07
2023-08-12T09:26:54.486Z,40.09
2023-08-12T09:29:20.975Z,39.75
2023-08-12T09:31:48.205Z,39.84
2023-08-12T09:34:14.768Z,39.45
2023-08-12T09:36:41.227Z,39.35
2023-08-12T09:39:08.060Z,39.47
2023-08-12T09:41:38.720Z,39.85
2023-08-12T09:44:06.114Z,39.68
2023-08-12T09:46:32.564Z,40.27
2023-08-12T09:48:59.037Z,39.44
2023-08-12T09:51:25.551Z,40.19
2023-08-12T09:53:55.262Z,39.05
2023-08-12T09:56:21.778Z,39.53
2023-08-12T09:58:53.613Z,39.80
2023-08-12T10:01:20.487Z,39.97
2023-08-12T10:03:48.088Z,40.41
2023-08-12T10:06:17.173Z,39.77
2023-08-12T10:08:43.733Z,40.02
2023-08-12T10:11:13.349Z,40.36
2023-08-12T10:13:40.395Z,40.16
2023-08-12T10:16:07.863Z,40.17
2023-08-12T10:18:37.160Z,40.31
2023-08-12T10:21:03.657Z,40.04
2023-08-12T10:23:30.099Z,39.87
2023-08-12T10:25:56.546Z,40.43
2023-08-12T10:28:24.485Z,40.08
2023-08-12T10:30:51.451Z,40.08
2023-08-12T10:33:18.563Z,39.19
2023-08-12T10:35:45.055Z,39.75
2023-08-12T10:38:11.572Z,39.48
2023-08-12T10:40:38.074Z,38.75
2023-08-12T10:43:04.552Z,38.64
2023-08-12T10:45:31.585Z,38.75
2023-08-12T10:47:58.258Z,38.03
2023-08-12T10:50:24.901Z,38.22
2023-08-12T10:52:54.123Z,37.96
2023-08-12T10:55:20.606Z,37.46
2023-08-12T10:57:52.452Z,36.38
2023-08-12T11:00:20.798Z,34.06
2023-08-12T11:02:48.161Z,34.34
2023-08-12T11:05:14.807Z,34.90
2023-08-12T11:07:43.387Z,34.86
2023-08-12T11:10:09.959Z,34.83
2023-08-12T11:12:36.405Z,35.06
2023-08-12T11:15:02.812Z,34.65
2023-08-12T11:17:29.988Z,34.07
2023-08-12T11:19:57.163Z,34.55
2023-08-12T11:22:26.208Z,35.33
2023-08-12T11:24:52.655Z,35.21
2023-08-12T11:27:19.191Z,36.17
2023-08-12T11:29:45.796Z,35.93
2023-08-12T11:32:12.854Z,35.35
2023-08-12T11:34:39.713Z,35.70
2023-08-12T11:37:06.912Z,34.74
2023-08-12T11:39:33.509Z,34.58
2023-08-12T11:42:00.317Z,35.79
2023-08-12T11:44:26.726Z,34.89
2023-08-12T11:46:54.999Z,34.90
2023-08-12T11:49:23.901Z,34.84
2023-08-12T11:51:50.861Z,35.09
2023-08-12T11:54:18.604Z,34.89
2023-08-12T11:56:45.915Z,34.51
2023-08-12T11:59:12.401Z,35.49
2023-08-12T12:01:39.017Z,35.33
2023-08-12T12:04:05.567Z,35.04
2023-08-12T12:06:32.084Z,35.25
2023-08-12T12:08:59.885Z,34.27
2023-08-12T12:11:26.612Z,34.32
2023-08-12T12:13:53.306Z,34.68
2023-08-12T12:16:19.827Z,34.13
2023-08-12T12:18:46.288Z,33.95
2023-08-12T12:21:12.964Z,34.27
2023-08-12T12:23:39.522Z,33.81
2023-08-12T12:26:05.966Z,33.98
2023-08-12T12:28:32.478Z,33.59
2023-08-12T12:30:59.058Z,32.76
2023-08-12T12:33:25.832Z,33.12
2023-08-12T12:35:58.642Z,33.14
2023-08-12T12:38:27.070Z,33.56
2023-08-12T12:40:53.832Z,32.12
2023-08-12T12:43:20.699Z,32.21
2023-08-12T12:45:47.251Z,33.13
2023-08-12T12:48:13.803Z,32.36
2023-08-12T12:50:40.257Z,31.97
2023-08-12T12:53:06.709Z,31.34
2023-08-12T12:55:33.293Z,31.99
2023-08-12T12:57:59.688Z,31.15
2023-08-12T13:00:26.176Z,31.83
2023-08-12T13:02:53.222Z,31.14
2023-08-12T13:05:21.788Z,31.85
2023-08-12T13:07:48.210Z,30.72
2023-08-12T13:10:14.715Z,31.52
2023-08-12T13:12:42.497Z,30.86
2023-08-12T13:15:09.478Z,31.61
2023-08-12T13:17:35.971Z,31.16
2023-08-12T13:20:02.594Z,30.80
2023-08-12T13:22:28.997Z,31.08
2023-08-12T13:24:55.675Z,31.60
2023-08-12T13:27:22.817Z,30.35
2023-08-12T13:29:50.305Z,30.12
2023-08-12T13:32:16.899Z,30.96
2023-08-12T13:34:43.295Z,30.73
2023-08-12T13:37:10.230Z,29.73
2023-08-12T13:39:36.609Z,30.75
2023-08-12T13:42:03.321Z,30.42
2023-08-12T13:44:29.745Z,30.54
2023-08-12T13:46:56.221Z,30.32
2023-08-12T13:49:23.031Z,29.58
2023-08-12T13:51:50.523Z,30.31
2023-08-12T13:54:17.097Z,30.29
2023-08-12T13:56:43.646Z,29.41
2023-08-12T13:59:10.073Z,29.89
2023-08-12T14:01:36.698Z,28.89
2023-08-12T14:04:04.189Z,29.37
2023-08-12T14:06:31.083Z,29.52
2023-08-12T14:08:58.014Z,29.52
2023-08-12T14:11:24.646Z,29.35
2023-08-12T14:13:51.538Z,29.29
2023-08-12T14:16:18.009Z,28.95
2023-08-12T14:18:44.948Z,28.45
2023-08-12T14:21:11.406Z,29.03
2023-08-12T14:23:38.273Z,28.88
2023-08-12T14:26:04.761Z,28.41
2023-08-12T14:28:31.338Z,28.48
2023-08-12T14:30:58.201Z,28.75
2023-08-12T14:33:24.772Z,28.55
2023-08-12T14:35:51.302Z,29.36
2023-08-12T14:38:17.672Z,29.00
2023-08-12T14:40:44.770Z,28.07
2023-08-12T14:43:11.268Z,28.99
2023-08-12T14:45:37.686Z,28.39
2023-08-12T14:48:04.174Z,28.75
2023-08-12T14:50:32.951Z,27.72
2023-08-12T14:52:59.657Z,27.40
2023-08-12T14:55:26.188Z,27.71
2023-08-12T14:57:52.843Z,28.54
2023-08-12T15:00:19.473Z,28.03
2023-08-12T15:02:45.962Z,28.24
2023-08-12T15:05:12.596Z,28.00
2023-08-12T15:07:39.023Z,27.99
2023-08-12T15:10:06.019Z,27.55
2023-08-12T15:12:32.632Z,27.38
2023-08-12T15:14:59.118Z,27.44
2023-08-12T15:17:25.730Z,27.63
2023-08-12T15:19:52.521Z,27.70
2023-08-12T15:22:18.930Z,27.18
2023-08-12T15:24:46.362Z,26.91
2023-08-12T15:27:13.166Z,27.67
2023-08-12T15:29:39.939Z,27.52
2023-08-12T15:32:06.495Z,27.50
2023-08-12T15:34:33.136Z,26.83
2023-08-12T15:36:59.604Z,27.35
2023-08-12T15:39:26.097Z,27.46
2023-08-12T15:41:52.484Z,27.17
2023-08-12T15:44:18.926Z,27.01
2023-08-12T15:46:45.331Z,27.17
2023-08-12T15:49:11.943Z,27.27
2023-08-12T15:51:38.691Z,27.72
2023-08-12T15:54:05.120Z,27.11
2023-08-12T15:56:32.383Z,27.13
2023-08-12T15:59:00.822Z,27.34
2023-08-12T16:01:27.285Z,27.21
2023-08-12T16:03:54.338Z,27.16
2023-08-12T16:06:20.871Z,27.25
2023-08-12T16:08:56.795Z,27.34
2023-08-12T16:11:32.131Z,27.50
2023-08-12T16:13:58.558Z,26.99
2023-08-12T16:16:27.570Z,27.27
2023-08-12T16:18:54.086Z,27.51
2023-08-12T16:21:20.569Z,27.45
2023-08-12T16:23:47.104Z,27.73
2023-08-12T16:26:13.548Z,27.32
2023-08-12T16:28:39.962Z,27.33
2023-08-12T16:31:06.727Z,27.44
2023-08-12T16:33:33.353Z,27.65
2023-08-12T16:35:59.766Z,27.76
2023-08-12T16:38:26.212Z,27.56
2023-08-12T16:40:52.649Z,28.12
2023-08-12T16:43:19.104Z,28.07
2023-08-12T16:45:45.632Z,28.02
2023-08-12T16:48:12.572Z,28.05
2023-08-12T16:50:39.031Z,28.16
2023-08-12T16:53:05.551Z,28.65
2023-08-12T16:55:31.982Z,28.32
2023-08-12T16:57:58.421Z,28.93
2023-08-12T17:00:24.892Z,28.92
2023-08-12T17:02:51.649Z,28.82
2023-08-12T17:05:18.111Z,29.57
2023-08-12T17:07:44.666Z,29.53
2023-08-12T17:10:11.153Z,29.52
2023-08-12T17:12:37.584Z,29.47
2023-08-12T17:15:04.233Z,29.74
2023-08-12T17:17:30.761Z,29.63
2023-08-12T17:19:57.217Z,30.00
2023-08-12T17:22:25.370Z,30.14
2023-08-12T17:24:52.300Z,30.32
2023-08-12T17:27:18.713Z,30.11
2023-08-12T17:29:45.225Z,30.42
2023-08-12T17:32:11.946Z,30.57
2023-08-12T17:34:38.902Z,30.71
2023-08-12T17:37:05.682Z,30.80
2023-08-12T17:39:32.037Z,31.10
2023-08-12T17:41:58.484Z,30.79
2023-08-12T17:44:25.247Z,30.50
2023-08-12T17:46:51.764Z,30.36
2023-08-12T17:49:18.475Z,30.57
2023-08-12T17:51:44.921Z,30.54
2023-08-12T17:54:11.584Z,30.83
2023-08-12T17:56:38.386Z,30.85
2023-08-12T17:59:04.769Z,30.46
2023-08-12T18:01:31.223Z,30.66
2023-08-12T18:03:58.295Z,30.89
2023-08-12T18:06:24.932Z,31.37
2023-08-12T18:08:51.389Z,31.90
2023-08-12T18:11:18.105Z,30.81
2023-08-12T18:13:44.615Z,31.91
2023-08-12T18:16:11.106Z,31.51
2023-08-12T18:18:37.691Z,32.00
2023-08-12T18:21:06.514Z,31.85
2023-08-12T18:23:32.955Z,31.72
2023-08-12T18:26:01.753Z,31.30
2023-08-12T18:28:28.475Z,32.12
2023-08-12T18:30:55.122Z,31.99
2023-08-12T18:33:21.583Z,31.71
2023-08-12T18:35:48.601Z,31.45
2023-08-12T18:38:17.415Z,32.36
2023-08-12T18:40:43.914Z,32.53
2023-08-12T18:43:11.869Z,32.23
2023-08-12T18:45:38.876Z,32.60
2023-08-12T18:48:05.873Z,32.03
2023-08-12T18:50:34.197Z,32.10
2023-08-12T18:53:02.839Z,32.18
2023-08-12T18:55:30.277Z,33.05
2023-08-12T18:57:57.027Z,32.25
2023-08-12T19:00:23.778Z,32.58
2023-08-12T19:02:50.919Z,31.96
2023-08-12T19:05:17.771Z,32.80
2023-08-12T19:07:44.304Z,32.65
2023-08-12T19:10:10.976Z,32.93
2023-08-12T19:12:37.471Z,32.82
2023-08-12T19:15:03.989Z,33.16
2023-08-12T19:17:30.576Z,32.74
2023-08-12T19:19:57.328Z,32.98
2023-08-12T19:22:24.779Z,32.87
2023-08-12T19:24:51.806Z,32.92
2023-08-12T19:27:18.737Z,32.89
2023-08-12T19:29:45.728Z,32.91
2023-08-12T19:32:16.221Z,33.38
2023-08-12T19:34:44.156Z,33.98
2023-08-12T19:37:11.275Z,33.48
2023-08-12T19:39:38.566Z,33.04
2023-08-12T19:42:05.792Z,33.10
2023-08-12T19:44:35.908Z,33.21
2023-08-12T19:47:04.932Z,33.39
2023-08-12T19:49:32.273Z,33.78
2023-08-12T19:52:00.552Z,33.75
2023-08-12T19:54:27.685Z,33.61
2023-08-12T19:56:54.803Z,33.38
2023-08-12T19:59:23.035Z,33.43
2023-08-12T20:01:50.234Z,33.66
2023-08-12T20:04:21.703Z,33.50
2023-08-12T20:06:51.990Z,33.95
2023-08-12T20:09:20.126Z,33.87
2023-08-12T20:11:49.749Z,33.43
2023-08-12T20:14:16.837Z,33.94
2023-08-12T20:16:45.982Z,33.87
2023-08-12T20:19:15.448Z,34.48
2023-08-12T20:21:43.543Z,34.07
2023-08-12T20:24:12.897Z,34.04
2023-08-12T20:26:40.268Z,34.64
2023-08-12T20:29:07.542Z,34.35
2023-08-12T20:31:34.447Z,34.38
2023-08-12T20:34:02.385Z,34.61
2023-08-12T20:36:30.148Z,34.39
2023-08-12T20:39:02.618Z,34.82
2023-08-12T20:41:29.857Z,35.02
2023-08-12T20:43:58.916Z,34.87
2023-08-12T20:46:26.412Z,34.96
2023-08-12T20:48:53.795Z,34.81
2023-08-12T20:51:21.016Z,35.46
2023-08-12T20:53:48.125Z,35.09
2023-08-12T20:56:15.725Z,35.10
2023-08-12T20:58:42.802Z,35.26
2023-08-12T21:01:09.372Z,35.69
2023-08-12T21:03:35.885Z,35.68
2023-08-12T21:06:02.489Z,35.55
2023-08-12T21:08:29.615Z,35.63
2023-08-12T21:10:56.059Z,35.58
2023-08-12T21:13:22.652Z,35.61
2023-08-12T21:15:49.119Z,35.84
2023-08-12T21:18:15.563Z,35.85
2023-08-12T21:20:41.994Z,35.73
2023-08-12T21:23:10.140Z,36.45
2023-08-12T21:25:36.597Z,36.64
2023-08-12T21:28:03.080Z,36.45
2023-08-12T21:30:29.655Z,36.03
2023-08-12T21:32:56.252Z,36.80
2023-08-12T21:35:23.008Z,36.31
2023-08-12T21:37:50.602Z,36.65
2023-08-12T21:40:18.292Z,36.62
2023-08-12T21:42:44.775Z,36.90
2023-08-12T21:45:11.733Z,36.94
2023-08-12T21:47:38.230Z,37.53
2023-08-12T21:50:04.737Z,37.48
2023-08-12T21:52:31.131Z,37.30
2023-08-12T21:54:58.849Z,37.51
2023-08-12T21:57:25.273Z,37.62
2023-08-12T21:59:51.884Z,37.43
2023-08-12T22:02:19.856Z,37.62
2023-08-12T22:04:48.461Z,38.12
2023-08-12T22:07:14.860Z,38.15
2023-08-12T22:09:41.513Z,38.12
2023-08-12T22:12:08.517Z,38.31
2023-08-12T22:14:35.314Z,38.19
2023-08-12T22:17:01.894Z,38.26
2023-08-12T22:19:28.503Z,38.24
2023-08-12T22:21:59.787Z,38.16
2023-08-12T22:24:33.002Z,38.21
2023-08-12T22:26:59.499Z,39.45
2023-08-12T22:29:25.904Z,39.32
2023-08-12T22:31:52.418Z,38.79
2023-08-12T22:34:18.860Z,38.74
2023-08-12T22:36:45.439Z,38.63
2023-08-12T22:39:12.140Z,38.72
2023-08-12T22:41:38.521Z,38.85
2023-08-12T22:44:05.020Z,38.56
2023-08-12T22:46:31.982Z,38.66
2023-08-12T22:48:58.643Z,38.76
2023-08-12T22:51:25.069Z,38.49
2023-08-12T22:53:51.913Z,38.81
2023-08-12T22:56:18.859Z,39.06
2023-08-12T22:58:45.780Z,38.75
2023-08-12T23:01:12.553Z,38.93
2023-08-12T23:03:39.092Z,39.21
2023-08-12T23:06:05.818Z,39.48
2023-08-12T23:08:32.374Z,39.30
2023-08-12T23:11:01.379Z,39.29
2023-08-12T23:13:28.024Z,39.17
2023-08-12T23:15:54.543Z,39.45
2023-08-12T23:18:20.969Z,39.34
2023-08-12T23:20:47.777Z,39.43
2023-08-12T23:23:14.235Z,39.62
2023-08-12T23:25:40.970Z,39.78
2023-08-12T23:28:08.574Z,39.77
2023-08-12T23:30:35.287Z,39.59
2023-08-12T23:33:05.000Z,40.00
2023-08-12T23:35:31.541Z,39.87
2023-08-12T23:37:58.020Z,40.40
2023-08-12T23:40:24.778Z,40.03
2023-08-12T23:42:51.392Z,39.77
2023-08-12T23:45:17.962Z,40.23
2023-08-12T23:47:44.952Z,40.04
2023-08-12T23:50:14.273Z,39.84
2023-08-12T23:52:40.738Z,40.76
2023-08-12T23:55:07.830Z,40.09
2023-08-12T23:57:34.247Z,40.39
